Time;durP1;ratioP1;P1;durP2;ratioP2;P2;SDS_P1;SDS_P2;PMS_P1;PMS_P2;Temp;Humidity;BMP_temperature;BMP_pressure;BME280_temperature;BME280_humidity;BME280_pressure;Samples;Min_cycle;Max_cycle;Signal;HPM_P1;HPM_P2
2023/09/21 00:00:21;;;;;;;;;;;;;;;-146.25;100.00;52226.25;2105737;28;44012;-63
2023/09/21 00:01:23;;;;;;;;;;;;;;;-146.25;100.00;52214.09;2105991;28;42444;-63
2023/09/21 00:02:28;;;;;;;;;;;;;;;-146.25;100.00;52210.03;2105461;28;39685;-63
2023/09/21 00:03:30;;;;;;;;;;;;;;;-146.25;100.00;52226.25;2106378;28;28179;-62
2023/09/21 00:04:34;;;;;;;;;;;;;;;-146.25;100.00;52240.47;2106401;28;19924;-62
2023/09/21 00:05:39;;;;;;;;;;;;;;;-146.25;100.00;52248.56;2105993;28;44593;-63
2023/09/21 00:06:41;;;;;;;;;;;;;;;-146.25;100.00;52206.00;2105770;28;42405;-62
2023/09/21 00:07:43;;;;;;;;;;;;;;;-146.25;100.00;52224.25;2106391;28;42643;-63
2023/09/21 00:08:48;;;;;;;;;;;;;;;-146.25;100.00;52234.38;2105080;28;42969;-63
2023/09/21 00:09:50;;;;;;;;;;;;;;;-146.25;100.00;52234.38;2106133;28;42041;-63
2023/09/21 00:10:52;;;;;;;;;;;;;;;-146.25;100.00;52246.53;2105632;28;45317;-63
2023/09/21 00:11:54;;;;;;;;;;;;;;;-146.25;100.00;52260.72;2106968;28;20835;-63
2023/09/21 00:12:56;;;;;;;;;;;;;;;-146.25;100.00;52228.28;2105671;28;45070;-63
2023/09/21 00:13:57;;;;;;;;;;;;;;;-146.25;100.00;52234.38;2105619;28;45902;-63
2023/09/21 00:14:59;;;;;;;;;;;;;;;-146.25;100.00;52224.25;2105286;28;43208;-63
2023/09/21 00:16:10;;;;;;;;;;;;;;;-146.25;100.00;52214.09;2107019;28;19928;-63
2023/09/21 00:17:11;;;;;;;;;;;;;;;-146.25;100.00;52260.72;2105700;28;44626;-62
2023/09/21 00:18:13;;;;;;;;;;;;;;;-146.25;100.00;52199.91;2106162;28;41552;-62
2023/09/21 00:19:16;;;;;;;;;;;;;;;-146.25;100.00;52222.22;2105437;28;45336;-62
2023/09/21 00:20:35;;;;;;;;;;;;;;;-146.25;100.00;52161.38;2105987;28;42300;-63
2023/09/21 00:21:37;;;;;;;;;;;;;;;-146.25;100.00;52222.22;2105583;28;43917;-63
2023/09/21 00:22:39;;;;;;;;;;;;;;;-146.25;100.00;52232.34;2105763;28;45012;-63
2023/09/21 00:23:41;;;;;;;;;;;;;;;-146.25;100.00;52222.22;2105593;28;42584;-62
2023/09/21 00:24:43;;;;;;;;;;;;;;;-146.25;100.00;52234.38;2105747;28;44987;-62
2023/09/21 00:25:47;;;;;;;;;;;;;;;-146.25;100.00;52270.88;2105861;28;44226;-62
2023/09/21 00:26:51;;;;;;;;;;;;;;;-146.25;100.00;52238.44;2104344;28;43947;-63
2023/09/21 00:27:53;;;;;;;;;;;;;;;-146.25;100.00;52224.25;2105775;28;19932;-63
2023/09/21 00:28:55;;;;;;;;;;;;;;;-146.25;100.00;52270.88;2097569;28;20591;-63
2023/09/21 00:29:59;;;;;;;;;;;;;;;-146.25;100.00;52244.50;2105512;28;30648;-63
2023/09/21 00:31:02;;;;;;;;;;;;;;;-146.25;100.00;52240.47;2106081;28;20006;-63
2023/09/21 00:32:07;;;;;;;;;;;;;;;-146.25;100.00;52291.16;2097800;28;29193;-63
2023/09/21 00:33:11;;;;;;;;;;;;;;;-146.25;100.00;52242.50;2105243;28;42942;-63
2023/09/21 00:34:15;;;;;;;;;;;;;;;-146.25;100.00;52222.22;2106180;28;25853;-63
2023/09/21 00:35:18;;;;;;;;;;;;;;;-146.25;100.00;52242.50;2105040;28;35897;-63
2023/09/21 00:36:21;;;;;;;;;;;;;;;-146.25;100.00;52242.50;2106006;28;33499;-63
2023/09/21 00:37:25;;;;;;;;;;;;;;;-146.25;100.00;52222.22;2105471;28;41516;-63
2023/09/21 00:38:28;;;;;;;;;;;;;;;-146.25;100.00;52222.22;2105133;28;40031;-62
2023/09/21 00:39:32;;;;;;;;;;;;;;;-146.25;100.00;52232.34;2106239;28;35438;-63
2023/09/21 00:40:38;;;;;;;;;;;;;;;-146.25;100.00;52266.81;2105165;28;36588;-62
2023/09/21 00:41:40;;;;;;;;;;;;;;;-146.25;100.00;52262.75;2106018;28;19929;-63
2023/09/21 00:42:42;;;;;;;;;;;;;;;-146.25;100.00;52285.06;2105841;28;43583;-63
2023/09/21 00:43:44;;;;;;;;;;;;;;;-146.25;100.00;52254.66;2106060;28;30609;-63
2023/09/21 00:44:46;;;;;;;;;;;;;;;-146.25;100.00;52222.22;2105392;28;34741;-63
2023/09/21 00:45:51;;;;;;;;;;;;;;;-146.25;100.00;52274.94;2105238;28;37281;-63
2023/09/21 00:46:53;;;;;;;;;;;;;;;-146.25;100.00;52212.06;2106377;28;19936;-62
2023/09/21 00:47:59;;;;;;;;;;;;;;;-146.25;100.00;52258.72;2105676;28;20006;-63
2023/09/21 00:49:00;;;;;;;;;;;;;;;-146.25;100.00;52254.66;2105340;28;33194;-63
2023/09/21 00:50:09;;;;;;;;;;;;;;;-146.25;100.00;52270.88;2097335;28;20776;-63
2023/09/21 00:51:12;;;;;;;;;;;;;;;-146.25;100.00;52256.69;2106860;28;35117;-63
2023/09/21 00:52:14;;;;;;;;;;;;;;;-146.25;100.00;52250.59;2104796;28;38237;-63
2023/09/21 00:53:17;;;;;;;;;;;;;;;-146.25;100.00;52230.31;2105300;28;38524;-63
2023/09/21 00:54:19;;;;;;;;;;;;;;;-146.25;100.00;52224.25;2104796;28;41110;-63
2023/09/21 00:55:30;;;;;;;;;;;;;;;-146.25;100.00;52199.91;2105307;28;37400;-63
2023/09/21 00:56:34;;;;;;;;;;;;;;;-146.25;100.00;52256.69;2105799;28;24465;-62
2023/09/21 00:57:36;;;;;;;;;;;;;;;-146.25;100.00;52185.72;2106159;28;31436;-63
2023/09/21 00:58:49;;;;;;;;;;;;;;;-146.25;100.00;52236.41;2104844;28;32350;-62
2023/09/21 00:59:52;;;;;;;;;;;;;;;-146.25;100.00;52238.44;2106051;28;20097;-63
2023/09/21 01:00:55;;;;;;;;;;;;;;;-146.25;100.00;52258.72;2105536;28;31760;-62
2023/09/21 01:01:57;;;;;;;;;;;;;;;-146.25;100.00;52242.50;2106566;28;19982;-63
2023/09/21 01:03:07;;;;;;;;;;;;;;;-146.25;100.00;52218.16;2105013;28;19932;-63
2023/09/21 01:04:12;;;;;;;;;;;;;;;-146.25;100.00;52222.22;2105874;28;25546;-63
2023/09/21 01:05:22;;;;;;;;;;;;;;;-146.25;100.00;52220.19;2105599;28;30950;-64
2023/09/21 01:06:23;;;;;;;;;;;;;;;-146.25;100.00;52244.50;2106175;28;30660;-62
2023/09/21 01:07:26;;;;;;;;;;;;;;;-146.25;100.00;52242.50;2105230;28;36508;-63
2023/09/21 01:08:28;;;;;;;;;;;;;;;-146.25;100.00;52254.66;2106693;28;19959;-63
2023/09/21 01:09:31;;;;;;;;;;;;;;;-146.25;100.00;52250.59;2114095;28;19981;-63
2023/09/21 01:10:33;;;;;;;;;;;;;;;-146.25;100.00;52218.16;2113963;28;28769;-63
2023/09/21 01:11:37;;;;;;;;;;;;;;;-146.25;100.00;52246.53;2106361;28;20717;-63
2023/09/21 01:12:44;;;;;;;;;;;;;;;-146.25;100.00;52266.81;2105506;28;19916;-62
2023/09/21 01:13:47;;;;;;;;;;;;;;;-146.25;100.00;52234.38;2105526;28;19932;-63
2023/09/21 01:15:23;;;;;;;;;;;;;;;-146.25;100.00;52262.75;2106142;28;19924;-63
2023/09/21 01:16:25;;;;;;;;;;;;;;;-146.25;100.00;52258.72;2093004;28;22186;-62
2023/09/21 01:17:30;;;;;;;;;;;;;;;-146.25;100.00;52230.31;2102270;28;37787;-63
2023/09/21 01:18:33;;;;;;;;;;;;;;;-146.25;100.00;52228.28;2106047;28;19943;-62
2023/09/21 01:19:37;;;;;;;;;;;;;;;-146.25;100.00;52256.69;2097142;28;19924;-63
2023/09/21 01:20:40;;;;;;;;;;;;;;;-146.25;100.00;52248.56;2105358;28;31065;-63
2023/09/21 01:21:46;;;;;;;;;;;;;;;-146.25;100.00;52252.63;2105714;28;29756;-62
2023/09/21 01:23:10;;;;;;;;;;;;;;;-146.25;100.00;52236.41;2106308;28;29614;-63
2023/09/21 01:24:13;;;;;;;;;;;;;;;-146.25;100.00;52242.50;2105481;28;19928;-63
2023/09/21 01:25:15;;;;;;;;;;;;;;;-146.25;100.00;52203.97;2105019;28;29269;-62
2023/09/21 01:26:18;;;;;;;;;;;;;;;-146.25;100.00;52242.50;2105895;28;32912;-63
2023/09/21 01:27:20;;;;;;;;;;;;;;;-146.25;100.00;52246.53;2105377;28;29609;-63
2023/09/21 01:28:23;;;;;;;;;;;;;;;-146.25;100.00;52242.50;2105727;28;31651;-63
2023/09/21 01:29:25;;;;;;;;;;;;;;;-146.25;100.00;52262.75;2104966;28;32339;-63
2023/09/21 01:30:28;;;;;;;;;;;;;;;-146.25;100.00;52266.81;2105365;28;28938;-63
2023/09/21 01:31:29;;;;;;;;;;;;;;;-146.25;100.00;52236.41;2105345;28;26727;-63
2023/09/21 01:32:31;;;;;;;;;;;;;;;-146.25;100.00;52238.44;2105600;28;19936;-62
2023/09/21 01:33:33;;;;;;;;;;;;;;;-146.25;100.00;52246.53;2105231;28;32036;-63
2023/09/21 01:34:35;;;;;;;;;;;;;;;-146.25;100.00;52246.53;2105420;28;31408;-63
2023/09/21 01:35:40;;;;;;;;;;;;;;;-146.25;100.00;52248.56;2106254;28;19955;-63
2023/09/21 01:36:44;;;;;;;;;;;;;;;-146.25;100.00;52295.19;2105671;28;19982;-63
2023/09/21 01:37:46;;;;;;;;;;;;;;;-146.25;100.00;52250.59;2105984;28;20335;-63
2023/09/21 01:38:48;;;;;;;;;;;;;;;-146.25;100.00;52224.25;2104999;28;29538;-63
2023/09/21 01:39:51;;;;;;;;;;;;;;;-146.25;100.00;52226.25;2096859;28;31424;-63
2023/09/21 01:40:53;;;;;;;;;;;;;;;-146.25;100.00;52226.25;2096969;28;26304;-63
2023/09/21 01:41:55;;;;;;;;;;;;;;;-146.25;100.00;52216.13;2105134;28;29118;-62
2023/09/21 01:42:59;;;;;;;;;;;;;;;-146.25;100.00;52248.56;2105849;28;19998;-63
2023/09/21 01:44:01;;;;;;;;;;;;;;;-146.25;100.00;52201.94;2105410;28;34151;-63
2023/09/21 01:45:03;;;;;;;;;;;;;;;-146.25;100.00;52291.16;2105839;28;24619;-63
2023/09/21 01:46:05;;;;;;;;;;;;;;;-146.25;100.00;52226.25;2105738;28;31998;-63
2023/09/21 01:47:12;;;;;;;;;;;;;;;-146.25;100.00;52230.31;2105609;28;28789;-63
2023/09/21 01:48:20;;;;;;;;;;;;;;;-146.25;100.00;52220.19;2105665;28;19928;-62
2023/09/21 01:49:24;;;;;;;;;;;;;;;-146.25;100.00;52238.44;2105804;28;19970;-63
2023/09/21 01:50:28;;;;;;;;;;;;;;;-146.25;100.00;52250.59;2105558;28;37740;-63
2023/09/21 01:51:30;;;;;;;;;;;;;;;-146.25;100.00;52244.50;2105757;28;27525;-63
2023/09/21 01:52:34;;;;;;;;;;;;;;;-146.25;100.00;52266.81;2104821;28;34728;-62
2023/09/21 01:53:36;;;;;;;;;;;;;;;-146.25;100.00;52270.88;2105028;28;27791;-62
2023/09/21 01:54:38;;;;;;;;;;;;;;;-146.25;100.00;52258.72;2105673;28;30362;-63
2023/09/21 01:55:41;;;;;;;;;;;;;;;-146.25;100.00;52246.53;2105393;28;32854;-62
2023/09/21 01:56:43;;;;;;;;;;;;;;;-146.25;100.00;52203.97;2105590;28;19924;-63
2023/09/21 01:57:47;;;;;;;;;;;;;;;-146.25;100.00;52254.66;2105255;28;19955;-62
2023/09/21 01:58:49;;;;;;;;;;;;;;;-146.25;100.00;52244.50;2105310;28;19934;-63
2023/09/21 01:59:51;;;;;;;;;;;;;;;-146.25;100.00;52238.44;2105616;28;19935;-63
2023/09/21 02:00:52;;;;;;;;;;;;;;;-146.25;100.00;52266.81;2104451;28;19925;-63
2023/09/21 02:01:54;;;;;;;;;;;;;;;-146.25;100.00;52220.19;2113521;28;20245;-63
2023/09/21 02:02:56;;;;;;;;;;;;;;;-146.25;100.00;52218.16;2097004;28;28908;-63
2023/09/21 02:03:58;;;;;;;;;;;;;;;-146.25;100.00;52264.78;2097301;28;29458;-63
2023/09/21 02:05:00;;;;;;;;;;;;;;;-146.25;100.00;52236.41;2113686;27;19920;-63
2023/09/21 02:06:02;;;;;;;;;;;;;;;-146.25;100.00;52226.25;2113373;28;33461;-63
2023/09/21 02:07:04;;;;;;;;;;;;;;;-146.25;100.00;52274.94;2096988;28;30097;-63
2023/09/21 02:08:07;;;;;;;;;;;;;;;-146.25;100.00;52246.53;2097227;28;29324;-63
2023/09/21 02:09:09;;;;;;;;;;;;;;;-146.25;100.00;52189.78;2097317;28;35108;-63
2023/09/21 02:10:11;;;;;;;;;;;;;;;-146.25;100.00;52248.56;2104486;28;31910;-63
2023/09/21 02:11:13;;;;;;;;;;;;;;;-146.25;100.00;52218.16;2105246;28;21012;-62
2023/09/21 02:12:15;;;;;;;;;;;;;;;-146.25;100.00;52230.31;2098096;28;26125;-63
2023/09/21 02:13:17;;;;;;;;;;;;;;;-146.25;100.00;52291.16;2106174;28;20697;-63
2023/09/21 02:14:19;;;;;;;;;;;;;;;-146.25;100.00;52242.50;2113096;28;29862;-63
2023/09/21 02:15:22;;;;;;;;;;;;;;;-146.25;100.00;52262.75;2105102;28;19979;-63
2023/09/21 02:16:24;;;;;;;;;;;;;;;-146.25;100.00;52240.47;2096753;28;20078;-63
2023/09/21 02:17:30;;;;;;;;;;;;;;;-146.25;100.00;52276.97;2105423;28;19925;-63
2023/09/21 02:18:34;;;;;;;;;;;;;;;-146.25;100.00;52248.56;2113598;28;20379;-63
2023/09/21 02:19:37;;;;;;;;;;;;;;;-146.25;100.00;52256.69;2112697;28;34483;-63
2023/09/21 02:20:44;;;;;;;;;;;;;;;-146.25;100.00;52234.38;2106038;28;19912;-63
2023/09/21 02:21:50;;;;;;;;;;;;;;;-146.25;100.00;52230.31;2113596;27;19924;-63
2023/09/21 02:22:59;;;;;;;;;;;;;;;-146.25;100.00;52214.09;2105602;28;19990;-63
2023/09/21 02:24:00;;;;;;;;;;;;;;;-146.25;100.00;52236.41;2105401;28;19997;-63
2023/09/21 02:26:21;;;;;;;;;;;;;;;-146.25;100.00;52236.41;2088318;28;19925;-65
2023/09/21 02:27:22;;;;;;;;;;;;;;;-146.25;100.00;52254.66;2079712;28;31331;-64
2023/09/21 02:28:26;;;;;;;;;;;;;;;-146.25;100.00;52270.88;2080449;28;19926;-63
2023/09/21 02:29:28;;;;;;;;;;;;;;;-146.25;100.00;52244.50;2088476;28;31548;-62
2023/09/21 02:30:36;;;;;;;;;;;;;;;-146.25;100.00;52230.31;2080079;28;20036;-65
2023/09/21 02:31:38;;;;;;;;;;;;;;;-146.25;100.00;52210.03;2081047;28;27337;-64
2023/09/21 02:32:42;;;;;;;;;;;;;;;-146.25;100.00;52250.59;2079679;28;19930;-64
2023/09/21 02:33:44;;;;;;;;;;;;;;;-146.25;100.00;52274.94;2079739;28;34487;-63
2023/09/21 02:34:45;;;;;;;;;;;;;;;-146.25;100.00;52232.34;2088594;28;19923;-65
2023/09/21 02:35:47;;;;;;;;;;;;;;;-146.25;100.00;52230.31;2088852;28;28439;-62
2023/09/21 02:36:52;;;;;;;;;;;;;;;-146.25;100.00;52260.72;2088749;28;27275;-64
2023/09/21 02:37:56;;;;;;;;;;;;;;;-146.25;100.00;52232.34;2089008;28;19969;-64
2023/09/21 02:38:57;;;;;;;;;;;;;;;-146.25;100.00;52258.72;2080075;28;24622;-64
2023/09/21 02:39:59;;;;;;;;;;;;;;;-146.25;100.00;52244.50;2079780;28;19992;-64
2023/09/21 02:41:01;;;;;;;;;;;;;;;-146.25;100.00;52228.28;2079423;28;33499;-65
2023/09/21 02:42:04;;;;;;;;;;;;;;;-146.25;100.00;52244.50;2079686;28;32219;-64
2023/09/21 02:43:08;;;;;;;;;;;;;;;-146.25;100.00;52240.47;2080073;28;19932;-64
2023/09/21 02:44:10;;;;;;;;;;;;;;;-146.25;100.00;52230.31;2088476;28;25719;-64
2023/09/21 02:45:12;;;;;;;;;;;;;;;-146.25;100.00;52262.75;2089443;28;20097;-64
2023/09/21 02:46:16;;;;;;;;;;;;;;;-146.25;100.00;52262.75;2088825;28;28949;-65
2023/09/21 02:47:19;;;;;;;;;;;;;;;-146.25;100.00;52250.59;2089243;28;20309;-64
2023/09/21 02:48:20;;;;;;;;;;;;;;;-146.25;100.00;52236.41;2079612;28;31543;-64
2023/09/21 02:49:22;;;;;;;;;;;;;;;-146.25;100.00;52309.41;2080110;28;19929;-65
2023/09/21 02:50:27;;;;;;;;;;;;;;;-146.25;100.00;52256.69;2088286;28;20654;-65
2023/09/21 02:51:32;;;;;;;;;;;;;;;-146.25;100.00;52234.38;2088277;28;19933;-65
2023/09/21 02:52:36;;;;;;;;;;;;;;;-146.25;100.00;52230.31;2088503;28;19928;-64
2023/09/21 02:53:38;;;;;;;;;;;;;;;-146.25;100.00;52238.44;2088414;28;20737;-64
2023/09/21 02:54:40;;;;;;;;;;;;;;;-146.25;100.00;52254.66;2087948;28;19925;-64
2023/09/21 02:55:44;;;;;;;;;;;;;;;-146.25;100.00;52222.22;2080428;28;19926;-64
2023/09/21 02:56:47;;;;;;;;;;;;;;;-146.25;100.00;52230.31;2091053;28;20459;-64
2023/09/21 02:57:55;;;;;;;;;;;;;;;-146.25;100.00;52250.59;2087958;28;19952;-65
2023/09/21 02:58:57;;;;;;;;;;;;;;;-146.25;100.00;52268.84;2079348;28;19992;-64
2023/09/21 03:00:08;;;;;;;;;;;;;;;-146.25;100.00;52238.44;2080083;28;20838;-65
2023/09/21 03:01:15;;;;;;;;;;;;;;;-146.25;100.00;52252.63;2088313;28;21007;-65
2023/09/21 03:02:19;;;;;;;;;;;;;;;-146.25;100.00;52248.56;2088356;28;19994;-65
2023/09/21 03:03:21;;;;;;;;;;;;;;;-146.25;100.00;52254.66;2087877;28;20787;-64
2023/09/21 03:04:23;;;;;;;;;;;;;;;-146.25;100.00;52234.38;2088237;28;19978;-64
2023/09/21 03:05:27;;;;;;;;;;;;;;;-146.25;100.00;52242.50;2087967;28;19937;-64
2023/09/21 03:06:32;;;;;;;;;;;;;;;-146.25;100.00;52254.66;2087809;28;27594;-64
2023/09/21 03:07:39;;;;;;;;;;;;;;;-146.25;100.00;52222.22;2088977;28;20067;-65
2023/09/21 03:08:41;;;;;;;;;;;;;;;-146.25;100.00;52240.47;2088186;28;19929;-64
2023/09/21 03:09:43;;;;;;;;;;;;;;;-146.25;100.00;52250.59;2088402;28;19933;-65
2023/09/21 03:10:47;;;;;;;;;;;;;;;-146.25;100.00;52226.25;2087790;28;19922;-64
2023/09/21 03:11:49;;;;;;;;;;;;;;;-146.25;100.00;52262.75;2088057;28;25091;-64
2023/09/21 03:12:52;;;;;;;;;;;;;;;-146.25;100.00;52264.78;2088105;28;20737;-65
2023/09/21 03:13:56;;;;;;;;;;;;;;;-146.25;99.72;52258.72;2087924;28;19925;-64
2023/09/21 03:14:57;;;;;;;;;;;;;;;-146.25;99.86;52272.91;2080065;28;19925;-63
2023/09/21 03:15:59;;;;;;;;;;;;;;;-146.25;99.61;52254.66;2079869;28;20000;-65
2023/09/21 03:17:05;;;;;;;;;;;;;;;-146.25;99.66;52270.88;2088323;28;21027;-64
2023/09/21 03:18:07;;;;;;;;;;;;;;;-146.25;99.39;52256.69;2080091;28;19969;-64
2023/09/21 03:19:09;;;;;;;;;;;;;;;-146.25;99.78;52238.44;2079829;28;23056;-64
2023/09/21 03:21:35;;;;;;;;;;;;;;;-146.25;99.95;52266.81;2079613;28;35884;-64
2023/09/21 03:22:38;;;;;;;;;;;;;;;-146.25;99.65;52250.59;2080089;28;19999;-64
2023/09/21 03:23:40;;;;;;;;;;;;;;;-146.25;99.44;52248.56;2088173;28;20047;-64
2023/09/21 03:24:41;;;;;;;;;;;;;;;-146.25;99.65;52244.50;2087987;28;20047;-64
2023/09/21 03:25:45;;;;;;;;;;;;;;;-146.25;99.54;52240.47;2087608;28;24768;-64
2023/09/21 03:26:50;;;;;;;;;;;;;;;-146.25;99.20;52240.47;2088128;28;20018;-64
2023/09/21 03:27:53;;;;;;;;;;;;;;;-146.25;99.21;52234.38;2088536;28;19999;-64
2023/09/21 03:28:55;;;;;;;;;;;;;;;-146.25;99.43;52246.53;2088159;28;27675;-64
2023/09/21 03:29:57;;;;;;;;;;;;;;;-146.25;99.03;52262.75;2079985;28;19925;-63
2023/09/21 03:31:01;;;;;;;;;;;;;;;-146.25;98.95;52258.72;2080383;28;19951;-64
2023/09/21 03:32:03;;;;;;;;;;;;;;;-146.25;98.73;52240.47;2079934;28;19964;-64
2023/09/21 03:33:08;;;;;;;;;;;;;;;-146.25;98.50;52226.25;2071712;28;20830;-64
2023/09/21 03:34:10;;;;;;;;;;;;;;;-146.25;98.55;52208.03;2080175;28;34273;-64
2023/09/21 03:35:14;;;;;;;;;;;;;;;-146.25;98.60;52244.50;2088217;28;19933;-64
2023/09/21 03:36:16;;;;;;;;;;;;;;;-146.25;98.70;52242.50;2088796;28;19992;-64
2023/09/21 03:37:19;;;;;;;;;;;;;;;-146.25;98.30;52250.59;2088217;28;35987;-64
2023/09/21 03:38:21;;;;;;;;;;;;;;;-146.25;98.85;52222.22;2088115;28;20071;-64
2023/09/21 03:39:26;;;;;;;;;;;;;;;-146.25;98.84;52212.06;2087666;28;30215;-64
2023/09/21 03:40:31;;;;;;;;;;;;;;;-146.25;98.67;52268.84;2088105;28;19925;-64
2023/09/21 03:41:33;;;;;;;;;;;;;;;-146.25;99.00;52216.13;2088355;28;19925;-64
2023/09/21 03:42:35;;;;;;;;;;;;;;;-146.25;98.33;52228.28;2079905;28;19979;-64
2023/09/21 03:43:37;;;;;;;;;;;;;;;-146.25;98.52;52230.31;2080154;28;19925;-64
2023/09/21 03:44:42;;;;;;;;;;;;;;;-146.25;98.01;52256.69;2080190;28;20873;-64
2023/09/21 03:45:45;;;;;;;;;;;;;;;-146.25;98.59;52206.00;2072044;28;20771;-64
2023/09/21 03:46:48;;;;;;;;;;;;;;;-146.25;98.37;52242.50;2080215;28;19929;-64
2023/09/21 03:47:53;;;;;;;;;;;;;;;-146.25;98.90;52234.38;2088059;28;19917;-63
2023/09/21 03:48:56;;;;;;;;;;;;;;;-146.25;98.78;52208.03;2088244;28;20064;-64
2023/09/21 03:50:00;;;;;;;;;;;;;;;-146.25;98.56;52224.25;2087972;28;19932;-64
2023/09/21 03:51:03;;;;;;;;;;;;;;;-146.25;98.81;52238.44;2079922;28;20833;-63
2023/09/21 03:52:05;;;;;;;;;;;;;;;-146.25;98.32;52240.47;2079756;28;20139;-63
2023/09/21 03:53:09;;;;;;;;;;;;;;;-146.25;98.30;52226.25;2088091;28;34036;-63
2023/09/21 03:54:15;;;;;;;;;;;;;;;-146.25;97.82;52242.50;2088243;28;20008;-65
2023/09/21 03:55:17;;;;;;;;;;;;;;;-146.25;98.27;52254.66;2088035;28;29176;-63
2023/09/21 03:56:19;;;;;;;;;;;;;;;-146.25;98.11;52256.69;2088404;28;30218;-63
2023/09/21 03:57:21;;;;;;;;;;;;;;;-146.25;98.30;52248.56;2088612;28;19932;-64
2023/09/21 03:58:22;;;;;;;;;;;;;;;-146.25;98.16;52250.59;2088395;28;28643;-64
2023/09/21 03:59:27;;;;;;;;;;;;;;;-146.25;98.35;52262.75;2079608;28;19926;-63
2023/09/21 04:01:35;;;;;;;;;;;;;;;-146.25;98.55;52244.50;2087621;28;28573;-62
2023/09/21 04:02:39;;;;;;;;;;;;;;;-146.25;98.19;52266.81;2087586;28;30385;-63
2023/09/21 04:03:46;;;;;;;;;;;;;;;-146.25;98.72;52242.50;2087988;28;19925;-63
2023/09/21 04:04:51;;;;;;;;;;;;;;;-146.25;97.97;52234.38;2088285;28;19925;-63
2023/09/21 04:05:53;;;;;;;;;;;;;;;-146.25;98.09;52226.25;2079926;28;19976;-64
2023/09/21 04:06:56;;;;;;;;;;;;;;;-146.25;98.19;52283.03;2079798;28;19921;-63
2023/09/21 04:07:58;;;;;;;;;;;;;;;-146.25;98.33;52212.06;2087657;28;27194;-64
2023/09/21 04:09:01;;;;;;;;;;;;;;;-146.25;98.94;52266.81;2088177;28;19922;-64
2023/09/21 04:10:04;;;;;;;;;;;;;;;-146.25;98.78;52250.59;2080433;28;19956;-64
2023/09/21 04:11:06;;;;;;;;;;;;;;;-146.25;98.42;52222.22;2081188;28;20785;-64
2023/09/21 04:12:08;;;;;;;;;;;;;;;-146.25;98.40;52256.69;2089081;28;32682;-64
2023/09/21 04:13:09;;;;;;;;;;;;;;;-146.25;98.35;52242.50;2089506;28;31326;-63
2023/09/21 04:14:12;;;;;;;;;;;;;;;-146.25;98.40;52276.97;2080855;28;19933;-62
2023/09/21 04:15:24;;;;;;;;;;;;;;;-146.25;97.89;52250.59;2083072;28;19976;-63
2023/09/21 04:16:26;;;;;;;;;;;;;;;-146.25;97.86;52234.38;2088915;28;25125;-63
2023/09/21 04:17:28;;;;;;;;;;;;;;;-146.25;98.20;52256.69;2089587;28;19984;-63
2023/09/21 04:18:32;;;;;;;;;;;;;;;-146.25;98.25;52258.72;2089147;28;20056;-64
2023/09/21 04:19:34;;;;;;;;;;;;;;;-146.25;98.42;52250.59;2089347;28;20841;-65
2023/09/21 04:20:40;;;;;;;;;;;;;;;-146.25;98.01;52220.19;2088853;28;30707;-64
2023/09/21 04:21:44;;;;;;;;;;;;;;;-146.25;97.68;52246.53;2089130;28;25587;-64
2023/09/21 04:22:49;;;;;;;;;;;;;;;-146.25;97.74;52218.16;2089075;28;20006;-65
2023/09/21 04:23:50;;;;;;;;;;;;;;;-146.25;97.78;52234.38;2088954;28;19925;-63
2023/09/21 04:24:52;;;;;;;;;;;;;;;-146.25;97.76;52262.75;2081273;28;20865;-62
2023/09/21 04:25:55;;;;;;;;;;;;;;;-146.25;97.99;52240.47;2088836;28;19940;-64
2023/09/21 04:26:58;;;;;;;;;;;;;;;-146.25;97.68;52252.63;2080077;28;20007;-64
2023/09/21 04:28:01;;;;;;;;;;;;;;;-146.25;98.12;52270.88;2080932;28;19979;-64
2023/09/21 04:29:07;;;;;;;;;;;;;;;-146.25;97.98;52252.63;2088956;28;19995;-64
2023/09/21 04:30:14;;;;;;;;;;;;;;;-146.25;98.00;52274.94;2081133;28;19929;-64
2023/09/21 04:31:18;;;;;;;;;;;;;;;-146.25;98.44;52228.28;2081801;28;19925;-65
2023/09/21 04:32:19;;;;;;;;;;;;;;;-146.25;97.77;52226.25;2081067;28;19925;-64
2023/09/21 04:33:22;;;;;;;;;;;;;;;-146.25;97.90;52252.63;2080766;28;20081;-63
2023/09/21 04:34:24;;;;;;;;;;;;;;;-146.25;98.22;52189.78;2081046;28;19929;-63
2023/09/21 04:35:27;;;;;;;;;;;;;;;-146.25;98.13;52222.22;2080960;28;19929;-64
2023/09/21 04:36:29;;;;;;;;;;;;;;;-146.25;98.17;52214.09;2081034;28;19914;-63
2023/09/21 04:37:38;;;;;;;;;;;;;;;-146.25;98.59;52232.34;2081172;28;19947;-64
2023/09/21 04:38:42;;;;;;;;;;;;;;;-146.25;98.40;52236.41;2081481;28;20063;-64
2023/09/21 04:39:44;;;;;;;;;;;;;;;-146.25;98.22;52252.63;2081108;28;19943;-64
2023/09/21 04:40:51;;;;;;;;;;;;;;;-146.25;98.24;52242.50;2081966;28;20080;-64
2023/09/21 04:41:52;;;;;;;;;;;;;;;-146.25;98.14;52222.22;2090131;28;33595;-65
2023/09/21 04:42:56;;;;;;;;;;;;;;;-146.25;97.82;52246.53;2080444;28;20039;-64
2023/09/21 04:44:00;;;;;;;;;;;;;;;-146.25;98.09;52260.72;2082013;28;19925;-65
2023/09/21 04:45:01;;;;;;;;;;;;;;;-146.25;98.25;52242.50;2079745;28;19913;-64
2023/09/21 04:46:03;;;;;;;;;;;;;;;-146.25;97.77;52224.25;2071791;28;19973;-65
2023/09/21 04:47:05;;;;;;;;;;;;;;;-146.25;97.99;52218.16;2072799;28;19931;-63
2023/09/21 04:48:07;;;;;;;;;;;;;;;-146.25;98.12;52238.44;2072695;28;19929;-63
2023/09/21 04:49:10;;;;;;;;;;;;;;;-146.25;97.71;52264.78;2080679;28;19972;-63
2023/09/21 04:50:16;;;;;;;;;;;;;;;-146.25;97.79;52230.31;2072681;28;19925;-63
2023/09/21 04:51:18;;;;;;;;;;;;;;;-146.25;98.02;52260.72;2081360;28;32224;-63
2023/09/21 04:52:21;;;;;;;;;;;;;;;-146.25;98.03;52256.69;2081701;28;19930;-63
2023/09/21 04:53:23;;;;;;;;;;;;;;;-146.25;97.93;52242.50;2080838;28;20798;-63
2023/09/21 04:54:25;;;;;;;;;;;;;;;-146.25;97.88;52226.25;2072528;28;19999;-65
2023/09/21 04:55:27;;;;;;;;;;;;;;;-146.25;97.85;52230.31;2072672;28;20007;-63
2023/09/21 04:56:28;;;;;;;;;;;;;;;-146.25;97.92;52244.50;2080834;28;19926;-62
2023/09/21 04:57:32;;;;;;;;;;;;;;;-146.25;97.92;52238.44;2080955;28;19922;-63
2023/09/21 04:58:34;;;;;;;;;;;;;;;-146.25;97.58;52193.81;2080651;28;20052;-64
2023/09/21 04:59:36;;;;;;;;;;;;;;;-146.25;97.81;52234.38;2080547;28;19925;-63
2023/09/21 05:00:39;;;;;;;;;;;;;;;-146.25;97.68;52266.81;2081358;28;19929;-63
2023/09/21 05:01:41;;;;;;;;;;;;;;;-146.25;97.77;52260.72;2080230;28;19922;-63
2023/09/21 05:02:43;;;;;;;;;;;;;;;-146.25;97.04;52230.31;2081134;28;21030;-64
2023/09/21 05:03:47;;;;;;;;;;;;;;;-146.25;97.10;52214.09;2080611;28;20008;-64
2023/09/21 05:04:50;;;;;;;;;;;;;;;-146.25;96.81;52242.50;2072901;28;20049;-63
2023/09/21 05:05:54;;;;;;;;;;;;;;;-146.25;96.76;52250.59;2072829;28;19926;-64
2023/09/21 05:06:55;;;;;;;;;;;;;;;-146.25;96.10;52250.59;2072538;28;19925;-63
2023/09/21 05:07:58;;;;;;;;;;;;;;;-146.25;96.16;52260.72;2078377;28;19929;-62
2023/09/21 05:09:02;;;;;;;;;;;;;;;-146.25;96.11;52266.81;2080508;28;19934;-63
2023/09/21 05:10:07;;;;;;;;;;;;;;;-146.25;95.97;52248.56;2080795;28;21146;-63
2023/09/21 05:11:09;;;;;;;;;;;;;;;-146.25;95.86;52216.13;2088924;28;20022;-64
2023/09/21 05:12:15;;;;;;;;;;;;;;;-146.25;95.85;52230.31;2090777;28;38765;-63
2023/09/21 05:13:19;;;;;;;;;;;;;;;-146.25;95.64;52236.41;2089505;28;19936;-64
2023/09/21 05:14:23;;;;;;;;;;;;;;;-146.25;95.59;52270.88;2089652;28;20014;-63
2023/09/21 05:15:26;;;;;;;;;;;;;;;-146.25;95.35;52212.06;2088772;28;34741;-64
2023/09/21 05:16:28;;;;;;;;;;;;;;;-146.25;95.46;52226.25;2089297;28;32574;-63
2023/09/21 05:17:31;;;;;;;;;;;;;;;-146.25;95.31;52238.44;2088850;28;38142;-64
2023/09/21 05:18:35;;;;;;;;;;;;;;;-146.25;94.54;52214.09;2089782;28;21658;-65
2023/09/21 05:19:37;;;;;;;;;;;;;;;-146.25;94.22;52256.69;2088587;28;35080;-65
2023/09/21 05:20:44;;;;;;;;;;;;;;;-146.25;94.83;52254.66;2088833;28;35770;-62
2023/09/21 05:21:46;;;;;;;;;;;;;;;-146.25;94.21;52234.38;2088771;28;20761;-65
2023/09/21 05:22:48;;;;;;;;;;;;;;;-146.25;94.07;52214.09;2089459;28;36994;-65